Time;durP1;ratioP1;P1;durP2;ratioP2;P2;SDS_P1;SDS_P2;PMS_P1;PMS_P2;Temp;Humidity;BMP_temperature;BMP_pressure;BME280_temperature;BME280_humidity;BME280_pressure;Samples;Min_cycle;Max_cycle;Signal;HPM_P1;HPM_P2
2024/01/07 00:01:53;;;;;;;4.77;4.37;;;9.10;78.70;7.60;95518.00;;;;4954352;28;20293;-84
2024/01/07 00:04:20;;;;;;;13.17;4.90;;;9.10;78.70;7.60;95505.00;;;;4968742;28;20606;-85
2024/01/07 00:06:49;;;;;;;4.37;3.97;;;9.10;78.50;7.60;95517.00;;;;4963824;28;20286;-84
2024/01/07 00:09:16;;;;;;;5.13;4.60;;;9.10;78.50;7.60;95513.00;;;;4962797;28;20302;-85
2024/01/07 00:11:44;;;;;;;4.97;4.47;;;9.10;78.50;7.60;95517.00;;;;4969232;28;20754;-85
2024/01/07 00:14:11;;;;;;;13.27;4.70;;;9.10;78.40;7.60;95516.00;;;;4957350;28;20298;-85
2024/01/07 00:16:38;;;;;;;5.33;4.83;;;9.10;78.40;7.60;95516.00;;;;4958309;28;20303;-85
2024/01/07 00:19:05;;;;;;;5.33;4.30;;;9.10;78.50;7.60;95517.00;;;;4958122;28;20249;-86
2024/01/07 00:21:32;;;;;;;4.90;4.50;;;9.10;78.50;7.60;95518.00;;;;4969863;28;20627;-84
2024/01/07 00:24:00;;;;;;;15.57;4.73;;;9.10;78.60;7.60;95508.00;;;;4969853;28;20234;-85
2024/01/07 00:26:27;;;;;;;6.93;4.23;;;9.10;78.60;7.60;95521.00;;;;4965655;28;20632;-85
2024/01/07 00:28:54;;;;;;;5.20;4.73;;;9.10;78.60;7.60;95510.00;;;;4958845;28;20493;-83
2024/01/07 00:31:22;;;;;;;5.83;4.97;;;9.10;78.50;7.60;95509.00;;;;4952263;28;20654;-84
2024/01/07 00:33:49;;;;;;;5.20;4.70;;;9.10;78.40;7.60;95517.00;;;;4960097;28;20698;-83
2024/01/07 00:36:16;;;;;;;4.70;4.30;;;9.10;78.40;7.60;95511.00;;;;4968092;28;20203;-83
2024/01/07 00:38:43;;;;;;;5.73;4.60;;;9.00;78.20;7.60;95509.00;;;;4958072;28;20282;-85
2024/01/07 00:41:12;;;;;;;5.07;4.63;;;9.10;78.30;7.60;95520.00;;;;4960169;28;20227;-83
2024/01/07 00:43:40;;;;;;;6.83;4.60;;;9.10;78.40;7.60;95514.00;;;;4964189;28;20203;-85
2024/01/07 00:46:07;;;;;;;5.03;4.53;;;9.00;78.40;7.50;95511.00;;;;4964009;28;20204;-86
2024/01/07 00:48:34;;;;;;;5.53;4.17;;;9.00;78.40;7.50;95509.00;;;;4965839;28;20298;-85
2024/01/07 00:51:01;;;;;;;4.87;4.37;;;9.00;78.20;7.50;95512.00;;;;4967735;28;20250;-87
2024/01/07 00:53:28;;;;;;;5.53;4.50;;;9.00;78.20;7.50;95516.00;;;;4970328;28;20868;-87
2024/01/07 00:55:55;;;;;;;5.27;4.60;;;9.00;78.30;7.50;95510.00;;;;4961833;28;20214;-86
2024/01/07 00:58:24;;;;;;;5.47;4.97;;;9.00;78.50;7.50;95512.00;;;;4962961;28;20737;-86
2024/01/07 01:00:53;;;;;;;9.63;4.00;;;9.00;78.50;7.50;95514.00;;;;4964031;28;20306;-85
2024/01/07 01:03:21;;;;;;;5.37;4.87;;;9.00;78.40;7.50;95515.00;;;;4966365;28;20235;-87
2024/01/07 01:05:48;;;;;;;5.77;4.23;;;9.10;78.70;7.50;95517.00;;;;4967085;28;20290;-85
2024/01/07 01:08:15;;;;;;;4.43;3.77;;;9.00;78.70;7.50;95512.00;;;;4969054;28;20282;-86
2024/01/07 01:10:42;;;;;;;4.63;4.17;;;8.90;78.70;7.50;95520.00;;;;4962162;28;20306;-87
2024/01/07 01:13:10;;;;;;;4.40;4.10;;;9.00;78.80;7.50;95523.00;;;;4967170;28;20259;-86
2024/01/07 01:15:39;;;;;;;3.63;3.33;;;9.00;78.80;7.50;95527.00;;;;4968529;28;20203;-86
2024/01/07 01:18:06;;;;;;;8.37;4.40;;;9.00;78.80;7.50;95525.00;;;;4968219;28;20325;-86
2024/01/07 01:20:33;;;;;;;4.13;3.83;;;9.00;78.90;7.50;95515.00;;;;4970446;28;20215;-87
2024/01/07 01:23:00;;;;;;;5.33;3.67;;;9.10;79.10;7.50;95516.00;;;;4966444;28;20236;-85
2024/01/07 01:25:29;;;;;;;4.23;3.63;;;9.00;78.90;7.50;95519.00;;;;4965185;28;20295;-84
2024/01/07 01:27:57;;;;;;;4.30;3.80;;;9.00;78.90;7.50;95520.00;;;;4964374;28;20274;-86
2024/01/07 01:30:24;;;;;;;4.63;4.23;;;9.00;78.90;7.50;95524.00;;;;4968460;28;20231;-86
2024/01/07 01:32:52;;;;;;;4.03;3.60;;;9.00;78.70;7.40;95519.00;;;;4952669;28;20223;-87
2024/01/07 01:35:19;;;;;;;4.03;3.73;;;9.00;78.70;7.40;95521.00;;;;4950007;28;20290;-86
2024/01/07 01:37:46;;;;;;;4.13;3.77;;;9.00;78.80;7.40;95521.00;;;;4962957;28;20204;-87
2024/01/07 01:40:14;;;;;;;4.73;4.03;;;8.90;79.00;7.50;95517.00;;;;4954414;28;20287;-83
2024/01/07 01:42:45;;;;;;;4.10;3.70;;;8.90;78.90;7.50;95521.00;;;;4968379;28;20207;-86
2024/01/07 01:45:12;;;;;;;4.60;3.90;;;8.90;78.80;7.50;95521.00;;;;4971752;28;20228;-86
2024/01/07 01:47:40;;;;;;;3.87;3.27;;;8.90;78.80;7.40;95519.00;;;;4968847;28;20290;-85
2024/01/07 01:50:11;;;;;;;3.90;3.53;;;8.90;78.80;7.40;95518.00;;;;4972747;28;20229;-85
2024/01/07 01:52:39;;;;;;;4.23;3.93;;;9.00;78.90;7.40;95516.00;;;;4970963;28;20232;-85
2024/01/07 01:55:06;;;;;;;3.80;3.50;;;8.90;79.00;7.40;95518.00;;;;4961056;28;20207;-84
2024/01/07 01:57:35;;;;;;;4.40;3.57;;;8.90;79.00;7.40;95516.00;;;;4971891;28;20245;-85
2024/01/07 02:00:05;;;;;;;6.70;3.87;;;8.90;78.90;7.40;95511.00;;;;4972406;28;20714;-86
2024/01/07 02:02:34;;;;;;;5.90;4.60;;;8.90;79.00;7.40;95516.00;;;;4972337;28;20710;-85
2024/01/07 02:05:02;;;;;;;5.07;3.23;;;8.90;79.10;7.40;95511.00;;;;4957945;28;20262;-85
2024/01/07 02:07:32;;;;;;;4.23;3.83;;;8.90;79.00;7.40;95513.00;;;;4968348;28;20580;-84
2024/01/07 02:10:01;;;;;;;5.30;3.70;;;8.40;78.70;7.40;95524.00;;;;4966496;28;20230;-85
2024/01/07 02:12:28;;;;;;;4.47;3.50;;;8.90;78.90;7.40;95513.00;;;;4960416;28;20661;-84
2024/01/07 02:14:55;;;;;;;4.33;3.80;;;8.90;78.70;7.30;95517.00;;;;4971470;28;20203;-85
2024/01/07 02:17:22;;;;;;;4.10;3.70;;;8.90;78.60;7.30;95517.00;;;;4968573;28;20566;-85
2024/01/07 02:19:49;;;;;;;11.93;4.30;;;8.90;78.60;7.30;95518.00;;;;4964156;28;20768;-84
2024/01/07 02:22:16;;;;;;;4.17;3.87;;;8.80;78.80;7.30;95513.00;;;;4968544;28;20493;-84
2024/01/07 02:24:45;;;;;;;3.97;3.57;;;8.80;78.80;7.30;95514.00;;;;4959400;28;20707;-85
2024/01/07 02:27:12;;;;;;;4.00;3.70;;;8.80;78.60;7.20;95517.00;;;;4970487;28;20255;-85
2024/01/07 02:29:39;;;;;;;7.17;4.30;;;8.80;78.40;7.20;95516.00;;;;4969848;28;20610;-84
2024/01/07 02:32:07;;;;;;;7.70;3.80;;;8.80;78.30;7.10;95514.00;;;;4956168;28;20920;-84
2024/01/07 02:34:34;;;;;;;7.73;4.10;;;8.70;78.30;7.10;95521.00;;;;4967017;28;20330;-86
2024/01/07 02:37:01;;;;;;;4.80;3.87;;;8.80;78.70;7.10;95513.00;;;;4949215;28;20287;-84
2024/01/07 02:39:28;;;;;;;5.10;4.60;;;8.70;78.90;7.10;95523.00;;;;4957394;28;20705;-85
2024/01/07 02:41:57;;;;;;;4.23;3.87;;;8.70;79.00;7.00;95522.00;;;;4951358;28;20647;-85
2024/01/07 02:44:24;;;;;;;7.33;4.33;;;8.60;79.00;7.00;95515.00;;;;4972324;28;20654;-86
2024/01/07 02:46:51;;;;;;;4.60;4.20;;;8.60;79.00;7.00;95522.00;;;;4966094;28;20227;-86
2024/01/07 02:49:18;;;;;;;4.73;4.23;;;8.60;79.00;7.00;95527.00;;;;4971698;28;20219;-86
2024/01/07 02:51:49;;;;;;;4.57;4.13;;;8.60;79.10;7.00;95510.00;;;;4962939;28;20311;-84
2024/01/07 02:54:16;;;;;;;4.47;4.07;;;8.60;79.00;7.00;95513.00;;;;4970348;28;20215;-86
2024/01/07 02:56:43;;;;;;;8.73;4.67;;;8.50;79.00;6.90;95512.00;;;;4968370;28;20290;-86
2024/01/07 02:59:11;;;;;;;5.50;5.00;;;8.50;79.00;6.90;95511.00;;;;4970720;28;20308;-86
2024/01/07 03:01:41;;;;;;;4.50;4.10;;;8.50;79.00;6.90;95514.00;;;;4971643;28;20646;-85
2024/01/07 03:04:09;;;;;;;4.80;3.97;;;8.50;78.90;6.80;95509.00;;;;4971578;28;20243;-84
2024/01/07 03:06:36;;;;;;;7.53;4.27;;;8.50;78.90;6.80;95499.00;;;;4964047;28;20294;-86
2024/01/07 03:09:03;;;;;;;4.43;4.03;;;8.40;78.90;6.80;95506.00;;;;4966661;28;20262;-85
2024/01/07 03:11:31;;;;;;;5.63;4.63;;;8.40;79.10;6.70;95503.00;;;;4969100;28;20662;-86
2024/01/07 03:13:58;;;;;;;4.17;3.83;;;8.40;79.10;6.70;95503.00;;;;4969023;28;20708;-85
2024/01/07 03:16:27;;;;;;;5.33;4.60;;;8.40;79.30;6.70;95510.00;;;;4960359;28;20649;-84
2024/01/07 03:18:54;;;;;;;4.83;4.43;;;8.40;79.40;6.70;95505.00;;;;4962786;28;20244;-85
2024/01/07 03:21:24;;;;;;;4.77;4.30;;;8.30;79.40;6.70;95502.00;;;;4970873;28;20256;-84
2024/01/07 03:23:52;;;;;;;4.57;4.13;;;8.30;79.40;6.70;95508.00;;;;4960632;28;20673;-85
2024/01/07 03:26:20;;;;;;;4.50;4.20;;;8.30;79.40;6.70;95506.00;;;;4949424;28;20209;-86
2024/01/07 03:28:47;;;;;;;5.00;4.60;;;8.30;79.40;6.70;95511.00;;;;4959441;28;20203;-85
2024/01/07 03:31:16;;;;;;;5.67;4.57;;;8.30;79.80;6.60;95509.00;;;;4959160;28;20212;-86
2024/01/07 03:33:45;;;;;;;4.70;4.30;;;8.30;80.20;6.60;95514.00;;;;4959245;28;20225;-84
2024/01/07 03:36:14;;;;;;;4.93;4.43;;;8.30;80.30;6.60;95511.00;;;;4969928;28;20578;-86
2024/01/07 03:38:42;;;;;;;4.40;4.00;;;8.20;79.60;6.60;95519.00;;;;4965325;28;20215;-85
2024/01/07 03:41:09;;;;;;;5.17;4.60;;;8.20;79.70;6.60;95520.00;;;;4969681;28;20734;-86
2024/01/07 03:43:36;;;;;;;4.90;4.47;;;8.20;79.90;6.60;95518.00;;;;4970130;28;20732;-88
2024/01/07 03:46:04;;;;;;;4.47;4.07;;;8.20;80.00;6.60;95514.00;;;;4957231;28;20232;-87
2024/01/07 03:48:31;;;;;;;6.70;4.27;;;8.20;79.90;6.60;95521.00;;;;4969099;28;20290;-87
2024/01/07 03:50:59;;;;;;;5.03;4.63;;;8.20;79.90;6.60;95524.00;;;;4958339;28;20254;-85
2024/01/07 03:53:26;;;;;;;4.20;3.87;;;8.20;80.10;6.60;95529.00;;;;4965720;28;20321;-86
2024/01/07 03:55:53;;;;;;;4.60;3.93;;;8.20;80.10;6.60;95528.00;;;;4965581;28;20227;-86
2024/01/07 03:58:20;;;;;;;4.03;3.73;;;8.20;80.10;6.60;95525.00;;;;4963576;28;20291;-86
2024/01/07 04:00:47;;;;;;;6.33;3.57;;;8.20;80.20;6.50;95532.00;;;;4970495;28;20670;-86
2024/01/07 04:03:14;;;;;;;3.83;3.53;;;8.20;80.20;6.50;95531.00;;;;4970054;28;20211;-85
2024/01/07 04:05:42;;;;;;;3.90;3.60;;;8.20;80.20;6.50;95526.00;;;;4970746;28;20206;-85
2024/01/07 04:08:12;;;;;;;4.43;4.10;;;8.20;80.20;6.50;95533.00;;;;4964249;28;20242;-87
2024/01/07 04:10:39;;;;;;;4.47;3.77;;;8.10;80.00;6.50;95531.00;;;;4962045;28;20306;-87
2024/01/07 04:13:06;;;;;;;17.97;4.47;;;8.10;80.00;6.50;95531.00;;;;4952838;28;20279;-86
2024/01/07 04:15:33;;;;;;;5.77;3.97;;;8.10;80.10;6.50;95533.00;;;;4964183;28;20218;-87
2024/01/07 04:18:03;;;;;;;3.77;3.47;;;8.10;80.10;6.50;95534.00;;;;4966655;28;20585;-84
2024/01/07 04:20:31;;;;;;;4.40;4.00;;;8.10;80.20;6.50;95533.00;;;;4962487;28;20227;-86
2024/01/07 04:22:58;;;;;;;4.07;3.77;;;8.10;80.20;6.50;95531.00;;;;4967252;28;20207;-85
2024/01/07 04:25:26;;;;;;;3.97;3.67;;;8.10;80.60;6.50;95545.00;;;;4960734;28;20641;-86
2024/01/07 04:27:54;;;;;;;3.83;3.50;;;8.10;80.20;6.40;95540.00;;;;4963141;28;20267;-85
2024/01/07 04:30:21;;;;;;;6.27;3.67;;;8.10;80.10;6.40;95542.00;;;;4953265;28;20696;-84
2024/01/07 04:32:48;;;;;;;10.13;4.20;;;8.00;80.10;6.40;95546.00;;;;4962930;28;20282;-86
2024/01/07 04:35:15;;;;;;;5.10;4.50;;;8.00;80.20;6.40;95547.00;;;;4960774;28;20484;-85
2024/01/07 04:37:43;;;;;;;6.83;4.37;;;8.00;80.30;6.40;95551.00;;;;4967717;28;20246;-84
2024/01/07 04:40:12;;;;;;;4.03;3.73;;;8.00;80.30;6.40;95550.00;;;;4959745;28;20298;-86
2024/01/07 04:42:41;;;;;;;6.57;4.13;;;8.00;80.30;6.40;95556.00;;;;4969726;28;20565;-84
2024/01/07 04:45:08;;;;;;;4.40;4.00;;;8.00;81.00;6.40;95557.00;;;;4968380;28;20250;-86
2024/01/07 04:47:36;;;;;;;4.57;4.23;;;8.00;80.30;6.40;95558.00;;;;4943037;28;20204;-84
2024/01/07 04:50:05;;;;;;;4.17;3.80;;;8.00;80.30;6.40;95553.00;;;;4954719;28;20310;-86
2024/01/07 04:52:32;;;;;;;7.10;4.27;;;8.00;80.30;6.40;95554.00;;;;4965911;28;20302;-86
2024/01/07 04:54:59;;;;;;;5.00;4.50;;;8.00;80.30;6.40;95561.00;;;;4963919;28;20223;-85
2024/01/07 04:57:26;;;;;;;4.57;4.17;;;8.00;80.30;6.40;95566.00;;;;4967076;28;20705;-86
2024/01/07 04:59:55;;;;;;;6.93;4.27;;;8.00;80.30;6.40;95571.00;;;;4967496;28;20234;-86
2024/01/07 05:02:23;;;;;;;8.10;3.93;;;8.00;80.20;6.30;95572.00;;;;4949822;28;20468;-87
2024/01/07 05:04:50;;;;;;;3.80;3.50;;;8.00;80.20;6.30;95569.00;;;;4959970;28;20227;-84
2024/01/07 05:07:17;;;;;;;5.23;4.03;;;7.90;80.20;6.30;95577.00;;;;4968579;28;20242;-85
2024/01/07 05:09:44;;;;;;;7.90;4.20;;;7.90;80.20;6.20;95585.00;;;;4963483;28;20223;-86
2024/01/07 05:12:11;;;;;;;3.90;3.60;;;7.90;80.20;6.20;95588.00;;;;4967382;28;20826;-84
2024/01/07 05:14:38;;;;;;;4.47;4.00;;;8.00;80.30;6.20;95585.00;;;;4967606;28;20223;-85
2024/01/07 05:17:07;;;;;;;5.87;3.90;;;7.90;80.20;6.20;95592.00;;;;4951119;28;20214;-86
2024/01/07 05:19:34;;;;;;;3.87;3.50;;;7.90;80.20;6.20;95595.00;;;;4957461;28;20769;-85
2024/01/07 05:22:02;;;;;;;3.87;3.50;;;7.80;80.30;6.20;95598.00;;;;4963597;28;20315;-85
2024/01/07 05:24:29;;;;;;;3.90;3.50;;;7.80;81.00;6.20;95597.00;;;;4971464;28;20237;-86
2024/01/07 05:26:56;;;;;;;4.10;3.70;;;7.80;80.30;6.20;95595.00;;;;4963338;28;20575;-84
2024/01/07 05:29:23;;;;;;;3.40;3.10;;;7.80;80.20;6.20;95596.00;;;;4973329;28;20298;-86
2024/01/07 05:31:50;;;;;;;3.40;3.10;;;7.80;80.20;6.20;95588.00;;;;4967847;28;20283;-85
2024/01/07 05:34:19;;;;;;;6.20;3.67;;;7.80;80.30;6.20;95598.00;;;;4972149;28;20314;-84
2024/01/07 05:36:46;;;;;;;6.50;3.53;;;7.80;80.30;6.20;95597.00;;;;4969636;28;20235;-86
2024/01/07 05:39:13;;;;;;;5.13;3.90;;;7.80;80.40;6.20;95601.00;;;;4970426;28;20224;-84
2024/01/07 05:41:40;;;;;;;4.17;3.67;;;7.80;80.50;6.20;95599.00;;;;4961857;28;20294;-84
2024/01/07 05:44:08;;;;;;;3.37;3.07;;;7.80;80.40;6.20;95603.00;;;;4964441;28;20222;-85
2024/01/07 05:46:38;;;;;;;3.60;3.30;;;7.80;80.40;6.20;95604.00;;;;4965330;28;20211;-83
2024/01/07 05:49:05;;;;;;;4.27;3.87;;;7.80;80.30;6.20;95607.00;;;;4972365;28;20230;-85
2024/01/07 05:51:34;;;;;;;9.47;4.33;;;7.80;80.20;6.20;95608.00;;;;4973898;28;20219;-86
2024/01/07 05:54:00;;;;;;;4.00;3.70;;;7.80;80.10;6.10;95616.00;;;;4973032;28;20261;-86
2024/01/07 05:56:27;;;;;;;4.00;3.60;;;7.80;80.10;6.10;95612.00;;;;4973703;28;20678;-86
2024/01/07 05:58:54;;;;;;;4.37;3.97;;;7.80;80.00;6.10;95623.00;;;;4970988;28;20204;-84
2024/01/07 06:01:22;;;;;;;3.87;3.47;;;7.80;80.00;6.10;95615.00;;;;4955867;28;20721;-83
2024/01/07 06:03:49;;;;;;;3.70;3.40;;;7.70;79.90;6.10;95622.00;;;;4966280;28;20296;-85
2024/01/07 06:06:17;;;;;;;4.40;3.47;;;7.70;79.90;6.10;95621.00;;;;4971850;28;20203;-86
2024/01/07 06:08:45;;;;;;;4.33;3.93;;;7.70;79.90;6.10;95618.00;;;;4969784;28;20241;-85
2024/01/07 06:11:18;;;;;;;5.93;3.70;;;7.70;79.80;6.00;95619.00;;;;4967298;28;20220;-87
2024/01/07 06:13:45;;;;;;;4.20;3.80;;;7.70;79.80;6.00;95626.00;;;;4973467;28;20282;-85
2024/01/07 06:16:13;;;;;;;5.87;4.20;;;7.70;79.80;6.00;95624.00;;;;4966988;28;20292;-85
2024/01/07 06:18:41;;;;;;;6.73;4.27;;;7.60;79.60;6.00;95629.00;;;;4973329;28;20200;-86
2024/01/07 06:21:08;;;;;;;5.50;3.57;;;7.60;79.60;6.00;95630.00;;;;4965959;28;20287;-86
2024/01/07 06:23:35;;;;;;;4.67;3.90;;;7.60;79.60;6.00;95632.00;;;;4974574;28;20682;-85
2024/01/07 06:26:06;;;;;;;9.53;4.50;;;7.60;79.70;6.00;95637.00;;;;4973457;28;20250;-85
2024/01/07 06:28:33;;;;;;;4.37;3.97;;;7.60;79.80;6.00;95632.00;;;;4965786;28;20295;-86
2024/01/07 06:31:04;;;;;;;4.40;4.00;;;7.60;80.00;6.00;95641.00;;;;4971292;28;20222;-86
2024/01/07 06:33:31;;;;;;;4.50;4.10;;;7.60;80.00;6.00;95631.00;;;;4964959;28;20207;-86
2024/01/07 06:35:58;;;;;;;4.40;4.00;;;7.60;80.00;6.00;95629.00;;;;4967654;28;20223;-84
2024/01/07 06:38:25;;;;;;;4.03;3.63;;;7.60;80.00;6.00;95636.00;;;;4967038;28;20196;-86
2024/01/07 06:40:54;;;;;;;5.93;4.10;;;7.60;79.90;6.00;95638.00;;;;4962987;28;20266;-84
2024/01/07 06:43:22;;;;;;;4.40;3.93;;;7.60;79.90;6.00;95645.00;;;;4973280;28;20214;-85
2024/01/07 06:45:49;;;;;;;7.47;4.40;;;7.70;80.00;6.00;95644.00;;;;4963247;28;20211;-86
2024/01/07 06:48:16;;;;;;;4.50;4.10;;;7.60;79.90;6.00;95645.00;;;;4973324;28;20202;-86
2024/01/07 06:50:44;;;;;;;8.07;4.57;;;7.60;80.00;6.00;95644.00;;;;4973339;28;20314;-86
2024/01/07 06:53:11;;;;;;;7.13;4.50;;;7.60;80.50;5.90;95652.00;;;;4968304;28;20204;-85
2024/01/07 06:55:38;;;;;;;4.60;4.07;;;7.60;79.80;5.90;95651.00;;;;4967711;28;20223;-86
2024/01/07 06:58:05;;;;;;;5.90;4.50;;;7.60;79.80;5.90;95658.00;;;;4971981;28;20200;-87
2024/01/07 07:00:34;;;;;;;6.47;4.30;;;7.60;79.70;5.90;95654.00;;;;4964482;28;20748;-84
2024/01/07 07:03:01;;;;;;;5.57;4.07;;;7.50;79.50;5.90;95659.00;;;;4966249;28;20207;-86
2024/01/07 07:05:28;;;;;;;4.93;4.43;;;7.50;79.40;5.80;95657.00;;;;4975265;28;20207;-86
2024/01/07 07:07:55;;;;;;;6.47;4.13;;;7.50;79.30;5.80;95661.00;;;;4977036;28;20318;-85
2024/01/07 07:10:23;;;;;;;5.27;4.20;;;7.50;79.30;5.80;95660.00;;;;4976520;28;20287;-85
2024/01/07 07:12:50;;;;;;;4.60;4.20;;;7.50;79.40;5.80;95663.00;;;;4977569;28;20241;-85
2024/01/07 07:15:17;;;;;;;5.10;4.60;;;7.50;79.40;5.80;95666.00;;;;4975890;28;20681;-84
2024/01/07 07:17:46;;;;;;;9.43;5.00;;;7.40;79.40;5.80;95670.00;;;;4971920;28;20749;-84
2024/01/07 07:20:13;;;;;;;4.47;4.07;;;7.40;79.40;5.70;95675.00;;;;4956474;28;20243;-86
2024/01/07 07:22:40;;;;;;;5.90;4.40;;;7.40;79.40;5.70;95670.00;;;;4965170;28;20231;-86
2024/01/07 07:25:09;;;;;;;4.50;4.10;;;7.40;79.40;5.70;95672.00;;;;4969719;28;20290;-86
2024/01/07 07:27:37;;;;;;;5.63;4.30;;;7.40;79.40;5.70;95684.00;;;;4968679;28;20281;-85
2024/01/07 07:30:06;;;;;;;5.90;5.30;;;7.40;79.50;5.70;95689.00;;;;4967998;28;20242;-87
2024/01/07 07:32:33;;;;;;;5.03;4.53;;;7.40;79.40;5.70;95689.00;;;;4966317;28;20196;-86
2024/01/07 07:35:02;;;;;;;5.80;5.00;;;7.30;79.30;5.60;95697.00;;;;4961738;28;20262;-86
2024/01/07 07:37:30;;;;;;;7.40;4.97;;;7.30;79.30;5.60;95700.00;;;;4972298;28;20231;-84
2024/01/07 07:39:57;;;;;;;7.67;4.80;;;7.30;79.40;5.60;95697.00;;;;4963904;28;20318;-86
2024/01/07 07:42:24;;;;;;;5.30;4.80;;;7.30;79.50;5.60;95701.00;;;;4970636;28;20231;-86
2024/01/07 07:44:51;;;;;;;5.23;4.47;;;7.30;79.70;5.60;95702.00;;;;4960749;28;20706;-84
2024/01/07 07:47:20;;;;;;;6.17;5.03;;;7.30;79.60;5.60;95711.00;;;;4967052;28;20227;-84
2024/01/07 07:49:47;;;;;;;6.00;5.00;;;7.30;79.40;5.60;95710.00;;;;4968253;28;20289;-85
2024/01/07 07:52:16;;;;;;;8.60;4.67;;;7.30;79.30;5.60;95719.00;;;;4966544;28;20279;-85
2024/01/07 07:54:43;;;;;;;5.83;4.80;;;7.30;79.30;5.50;95720.00;;;;4966913;28;20302;-85
2024/01/07 07:57:10;;;;;;;5.93;4.47;;;7.20;79.20;5.50;95725.00;;;;4961031;28;20247;-85
2024/01/07 07:59:37;;;;;;;6.13;5.37;;;7.20;79.20;5.50;95725.00;;;;4969148;28;20601;-83
2024/01/07 08:02:05;;;;;;;6.43;5.17;;;7.20;79.10;5.50;95727.00;;;;4966368;28;20623;-86
2024/01/07 08:04:32;;;;;;;6.73;4.67;;;7.20;78.90;5.40;95727.00;;;;4968950;28;20610;-86
2024/01/07 08:07:00;;;;;;;8.10;5.43;;;7.20;78.80;5.40;95726.00;;;;4964132;28;20202;-85
2024/01/07 08:09:29;;;;;;;6.90;5.43;;;7.10;78.70;5.40;95730.00;;;;4969125;28;20613;-84
2024/01/07 08:11:56;;;;;;;6.07;4.63;;;7.10;78.70;5.40;95731.00;;;;4964571;28;20295;-85
2024/01/07 08:14:23;;;;;;;8.13;5.63;;;7.10;78.80;5.40;95733.00;;;;4970009;28;20287;-87
2024/01/07 08:16:50;;;;;;;7.13;4.97;;;7.10;78.90;5.40;95731.00;;;;4966917;28;20218;-86
2024/01/07 08:19:17;;;;;;;7.03;4.97;;;7.10;79.00;5.40;95735.00;;;;4965511;28;20233;-88
2024/01/07 08:21:45;;;;;;;6.07;5.13;;;7.10;79.10;5.40;95738.00;;;;4970196;28;20658;-87
2024/01/07 08:24:12;;;;;;;6.77;5.50;;;7.10;79.10;5.40;95737.00;;;;4965859;28;20201;-87
2024/01/07 08:26:40;;;;;;;7.23;5.83;;;7.10;79.20;5.40;95748.00;;;;4971411;28;20234;-86
2024/01/07 08:29:08;;;;;;;9.20;5.50;;;7.10;79.10;5.40;95746.00;;;;4966507;28;20644;-85
2024/01/07 08:31:35;;;;;;;7.93;5.97;;;7.10;79.00;5.30;95749.00;;;;4960685;28;20670;-86
2024/01/07 08:34:02;;;;;;;7.80;6.33;;;7.10;79.10;5.40;95751.00;;;;4971438;28;20294;-86
2024/01/07 08:36:32;;;;;;;8.17;6.47;;;7.10;79.30;5.40;95749.00;;;;4967760;28;20281;-87
2024/01/07 08:39:00;;;;;;;7.67;5.93;;;7.10;79.40;5.50;95751.00;;;;4969466;28;20291;-86
2024/01/07 08:41:27;;;;;;;9.40;6.53;;;7.10;79.60;5.50;95762.00;;;;4968163;28;20211;-85
2024/01/07 08:43:56;;;;;;;15.00;5.77;;;6.80;79.50;5.60;95756.00;;;;4973747;28;20266;-86
2024/01/07 08:46:23;;;;;;;7.70;6.20;;;7.20;79.80;5.60;95758.00;;;;4961329;28;20237;-86
2024/01/07 08:48:50;;;;;;;8.87;5.93;;;7.20;80.00;5.60;95769.00;;;;4970331;28;20243;-85
2024/01/07 08:51:18;;;;;;;8.03;6.13;;;7.50;80.10;5.70;95769.00;;;;4970568;28;20203;-86
2024/01/07 08:53:47;;;;;;;7.03;5.60;;;7.30;80.00;5.70;95768.00;;;;4975562;28;20199;-86
2024/01/07 08:56:14;;;;;;;6.90;5.70;;;8.50;80.50;5.80;95774.00;;;;4973378;28;20228;-87
2024/01/07 08:58:42;;;;;;;9.33;6.23;;;7.40;79.90;5.80;95781.00;;;;4974722;28;20740;-86
2024/01/07 09:01:11;;;;;;;13.57;6.40;;;7.40;79.80;5.80;95778.00;;;;4968083;28;20750;-86
2024/01/07 09:03:38;;;;;;;11.27;6.03;;;7.50;79.50;5.80;95789.00;;;;4969724;28;20798;-86
2024/01/07 09:06:05;;;;;;;11.50;6.00;;;7.50;79.50;5.90;95783.00;;;;4969284;28;20616;-85
2024/01/07 09:08:33;;;;;;;9.53;6.67;;;7.50;79.50;5.90;95789.00;;;;4967392;28;20211;-86
2024/01/07 09:11:01;;;;;;;7.87;6.00;;;7.60;79.40;5.90;95785.00;;;;4972865;28;20246;-87
2024/01/07 09:13:28;;;;;;;8.13;6.07;;;7.60;79.20;5.90;95784.00;;;;4971247;28;20266;-88
2024/01/07 09:15:56;;;;;;;9.50;5.67;;;7.50;79.20;5.90;95787.00;;;;4965600;28;20220;-87
2024/01/07 09:18:26;;;;;;;8.13;5.97;;;7.70;79.20;5.90;95794.00;;;;4966446;28;20231;-85
2024/01/07 09:20:53;;;;;;;8.87;5.67;;;7.60;79.10;5.90;95799.00;;;;4956404;28;20255;-86
2024/01/07 09:23:20;;;;;;;8.23;6.13;;;7.60;79.10;5.90;95799.00;;;;4958838;28;20286;-87
2024/01/07 09:25:49;;;;;;;7.07;5.20;;;7.60;78.90;5.90;95801.00;;;;4957759;28;20689;-87
2024/01/07 09:28:16;;;;;;;8.07;6.37;;;7.60;78.70;5.90;95806.00;;;;4966461;28;20204;-87
2024/01/07 09:30:43;;;;;;;7.33;5.07;;;7.60;78.60;5.90;95807.00;;;;4965620;28;20225;-86
2024/01/07 09:33:10;;;;;;;7.93;6.07;;;7.60;78.60;5.90;95806.00;;;;4956796;28;20644;-86
2024/01/07 09:35:38;;;;;;;8.63;5.47;;;7.60;78.80;5.90;95805.00;;;;4973319;28;20674;-86
2024/01/07 09:38:06;;;;;;;7.60;5.80;;;7.60;79.10;5.90;95801.00;;;;4961059;28;20207;-87
2024/01/07 09:40:33;;;;;;;9.57;5.70;;;7.60;79.30;5.90;95806.00;;;;4952170;28;20662;-86
2024/01/07 09:43:01;;;;;;;6.73;6.03;;;7.60;79.30;5.90;95807.00;;;;4965708;28;20643;-87
2024/01/07 09:45:30;;;;;;;6.37;5.00;;;7.60;79.40;5.90;95810.00;;;;4959715;28;20294;-87
2024/01/07 09:47:58;;;;;;;8.90;5.97;;;7.60;79.50;5.90;95811.00;;;;4964174;28;20205;-86
2024/01/07 09:50:26;;;;;;;6.03;5.13;;;7.70;79.40;5.90;95810.00;;;;4962907;28;20644;-87
2024/01/07 09:53:00;;;;;;;6.37;5.30;;;7.60;79.30;5.90;95814.00;;;;4967516;28;20450;-86
2024/01/07 09:55:33;;;;;;;6.67;5.20;;;7.70;79.40;6.00;95818.00;;;;4965526;28;20226;-87
2024/01/07 09:58:01;;;;;;;8.33;5.17;;;7.70;79.50;6.00;95812.00;;;;4971086;28;20268;-86
2024/01/07 10:00:30;;;;;;;6.23;4.77;;;7.70;79.50;6.00;95806.00;;;;4965167;28;20231;-88
2024/01/07 10:02:57;;;;;;;5.73;4.83;;;7.70;79.50;6.00;95806.00;;;;4968077;28;20678;-85
2024/01/07 10:05:24;;;;;;;8.33;5.13;;;7.70;79.30;6.00;95813.00;;;;4965569;28;20218;-88
2024/01/07 10:07:54;;;;;;;9.73;4.70;;;7.70;79.10;6.00;95815.00;;;;4963200;28;20228;-86
2024/01/07 10:10:23;;;;;;;6.10;5.13;;;7.70;79.90;6.00;95813.00;;;;4954458;28;20709;-85
2024/01/07 10:12:52;;;;;;;5.43;4.77;;;7.70;79.00;6.00;95807.00;;;;4959790;28;20294;-87
2024/01/07 10:15:20;;;;;;;5.40;4.83;;;7.70;78.80;6.00;95806.00;;;;4957812;28;20690;-87
2024/01/07 10:17:50;;;;;;;7.57;4.93;;;7.70;79.50;6.00;95813.00;;;;4959258;28;20226;-87
2024/01/07 10:20:19;;;;;;;5.47;4.83;;;7.70;78.50;6.00;95810.00;;;;4951590;28;20713;-87
2024/01/07 10:22:51;;;;;;;5.40;4.90;;;7.70;78.70;6.00;95815.00;;;;4956941;28;20298;-87
2024/01/07 10:25:19;;;;;;;5.17;4.67;;;7.70;78.70;6.00;95813.00;;;;4959253;28;20302;-87
2024/01/07 10:27:49;;;;;;;5.70;4.77;;;7.70;78.60;6.00;95817.00;;;;4957035;28;20236;-87
2024/01/07 10:30:18;;;;;;;6.70;4.50;;;7.70;78.30;5.90;95815.00;;;;4964973;28;20223;-87
2024/01/07 10:32:47;;;;;;;4.67;4.27;;;7.70;78.50;5.90;95813.00;;;;4966396;28;20629;-88
2024/01/07 10:35:15;;;;;;;6.00;5.00;;;7.70;78.60;5.90;95812.00;;;;4957634;28;20235;-87
2024/01/07 10:37:44;;;;;;;4.60;3.80;;;7.70;78.30;5.90;95809.00;;;;4963939;28;20290;-88
2024/01/07 10:40:13;;;;;;;5.27;4.27;;;7.70;78.20;5.90;95817.00;;;;4951376;28;20299;-87
2024/01/07 10:42:44;;;;;;;4.57;4.17;;;7.60;78.20;5.80;95818.00;;;;4962253;28;20203;-86
2024/01/07 10:45:14;;;;;;;4.80;4.30;;;7.60;78.30;5.80;95825.00;;;;4962990;28;20200;-87
2024/01/07 10:47:49;;;;;;;6.10;4.90;;;7.60;78.10;5.80;95831.00;;;;4964638;28;20544;-88
2024/01/07 10:50:18;;;;;;;5.93;4.30;;;7.60;78.10;5.80;95826.00;;;;4962893;28;20269;-87
2024/01/07 10:52:52;;;;;;;5.50;4.97;;;7.60;78.10;5.80;95825.00;;;;4960744;28;20282;-86
2024/01/07 10:55:22;;;;;;;4.70;4.30;;;7.60;78.00;5.70;95823.00;;;;4964882;28;20207;-87
2024/01/07 10:57:52;;;;;;;4.50;4.10;;;7.50;77.90;5.70;95827.00;;;;4961394;28;20298;-87
2024/01/07 11:00:22;;;;;;;7.80;4.47;;;7.50;77.70;5.60;95820.00;;;;4962922;28;20323;-87
2024/01/07 11:03:03;;;;;;;4.97;4.37;;;7.50;77.50;5.60;95823.00;;;;4951116;28;20284;-86
2024/01/07 11:05:42;;;;;;;5.73;4.17;;;8.70;78.50;5.60;95829.00;;;;4964198;28;20203;-88
2024/01/07 11:08:22;;;;;;;6.73;4.47;;;7.60;78.00;5.60;95831.00;;;;4947755;28;20214;-88
2024/01/07 11:10:58;;;;;;;5.23;4.70;;;8.30;78.60;5.60;95827.00;;;;4935185;28;20224;-86
2024/01/07 11:13:37;;;;;;;7.00;4.90;;;7.40;78.00;5.60;95830.00;;;;4943141;28;20311;-87